Time;durP1;ratioP1;P1;durP2;ratioP2;P2;SDS_P1;SDS_P2;PMS_P1;PMS_P2;Temp;Humidity;BMP_temperature;BMP_pressure;BME280_temperature;BME280_humidity;BME280_pressure;Samples;Min_cycle;Max_cycle;Signal;HPM_P1;HPM_P2
2022/01/31 00:01:48;;;;;;;11.25;3.67;;;4.90;99.90;;;;;;5095634;28;20170;-47
2022/01/31 00:04:13;;;;;;;11.90;3.30;;;4.90;99.90;;;;;;5095673;28;20170;-47
2022/01/31 00:06:39;;;;;;;10.13;3.47;;;4.90;99.90;;;;;;5095596;28;20700;-48
2022/01/31 00:09:04;;;;;;;9.70;2.72;;;4.90;99.90;;;;;;5095776;28;20266;-49
2022/01/31 00:11:31;;;;;;;13.02;4.05;;;5.00;99.90;;;;;;5095552;28;20680;-51
2022/01/31 00:14:01;;;;;;;7.82;3.03;;;5.10;99.90;;;;;;5095973;28;20264;-48
2022/01/31 00:16:32;;;;;;;10.00;2.88;;;5.10;99.90;;;;;;5095970;28;20165;-51
2022/01/31 00:19:01;;;;;;;7.03;2.95;;;5.10;99.90;;;;;;5095561;28;20177;-47
2022/01/31 00:21:29;;;;;;;13.15;3.35;;;5.10;99.90;;;;;;5095646;28;20198;-50
2022/01/31 00:23:54;;;;;;;13.38;4.13;;;5.10;99.90;;;;;;5095615;28;20177;-47
2022/01/31 00:26:20;;;;;;;10.32;3.33;;;5.20;99.90;;;;;;5095520;28;20165;-49
2022/01/31 00:28:45;;;;;;;9.30;2.97;;;5.10;99.90;;;;;;5095107;28;20673;-48
2022/01/31 00:31:11;;;;;;;12.57;4.00;;;5.10;99.90;;;;;;5095177;28;20501;-48
2022/01/31 00:33:36;;;;;;;13.10;4.10;;;5.20;99.90;;;;;;5095029;28;20207;-48
2022/01/31 00:36:02;;;;;;;12.95;4.57;;;5.20;99.90;;;;;;5095027;28;20165;-49
2022/01/31 00:38:27;;;;;;;14.52;3.65;;;5.10;99.90;;;;;;5095002;28;20636;-48
2022/01/31 00:40:53;;;;;;;8.88;2.05;;;5.10;99.90;;;;;;5095211;28;20653;-51
2022/01/31 00:43:20;;;;;;;14.38;3.30;;;5.20;99.90;;;;;;5094865;28;20201;-49
2022/01/31 00:46:00;;;;;;;9.32;2.47;;;5.20;99.90;;;;;;5095134;28;20173;-51
2022/01/31 00:48:28;;;;;;;12.60;2.35;;;5.20;99.90;;;;;;5095175;28;20579;-48
2022/01/31 00:50:54;;;;;;;21.25;2.88;;;5.30;99.90;;;;;;5095290;28;20196;-51
2022/01/31 00:53:19;;;;;;;18.58;2.65;;;5.40;99.90;;;;;;5094671;28;20633;-50
2022/01/31 00:55:45;;;;;;;11.10;2.83;;;5.40;99.90;;;;;;5093880;28;20236;-49
2022/01/31 00:58:10;;;;;;;11.18;3.17;;;5.40;99.90;;;;;;5094484;28;20643;-49
2022/01/31 01:00:36;;;;;;;8.02;2.42;;;5.40;99.90;;;;;;5094542;28;20667;-49
2022/01/31 01:03:03;;;;;;;8.68;2.72;;;5.40;99.90;;;;;;5094546;28;20636;-52
2022/01/31 01:05:29;;;;;;;16.55;3.22;;;5.40;99.90;;;;;;5094461;28;20563;-48
2022/01/31 01:07:55;;;;;;;9.82;2.95;;;5.40;99.90;;;;;;5094894;28;20201;-50
2022/01/31 01:10:21;;;;;;;8.82;2.42;;;5.40;99.90;;;;;;5094354;28;20162;-49
2022/01/31 01:12:47;;;;;;;8.50;2.70;;;5.50;99.90;;;;;;5094200;28;20224;-49
2022/01/31 01:15:14;;;;;;;6.55;1.90;;;5.50;99.90;;;;;;5094572;28;20575;-50
2022/01/31 01:17:40;;;;;;;5.88;2.33;;;5.50;99.90;;;;;;5094234;28;20161;-50
2022/01/31 01:20:07;;;;;;;7.55;2.83;;;5.50;99.90;;;;;;5094205;28;20200;-53
2022/01/31 01:22:33;;;;;;;13.45;2.38;;;5.50;99.90;;;;;;5094156;28;20169;-51
2022/01/31 01:25:01;;;;;;;9.43;2.58;;;5.50;99.90;;;;;;5094089;28;20192;-50
2022/01/31 01:27:27;;;;;;;9.35;2.92;;;5.50;99.90;;;;;;5094305;28;20732;-52
2022/01/31 01:29:52;;;;;;;10.43;2.92;;;5.50;99.90;;;;;;5094284;28;20252;-52
2022/01/31 01:32:18;;;;;;;10.82;2.83;;;5.60;99.90;;;;;;5093923;28;20169;-48
2022/01/31 01:34:44;;;;;;;7.15;2.38;;;5.50;99.90;;;;;;5094153;28;20227;-48
2022/01/31 01:37:09;;;;;;;7.78;1.90;;;5.50;99.90;;;;;;5093700;28;20693;-48
2022/01/31 01:39:35;;;;;;;9.82;2.33;;;5.50;99.90;;;;;;5093720;28;20255;-48
2022/01/31 01:42:01;;;;;;;8.85;2.30;;;5.50;99.90;;;;;;5093691;28;20176;-48
2022/01/31 01:44:45;;;;;;;6.75;2.17;;;5.50;99.90;;;;;;5093654;28;20166;-47
2022/01/31 01:47:11;;;;;;;12.95;2.75;;;5.50;99.90;;;;;;5093485;28;20174;-47
2022/01/31 01:49:37;;;;;;;10.68;2.90;;;5.50;99.90;;;;;;5093587;28;20169;-47
2022/01/31 01:52:03;;;;;;;6.90;2.33;;;5.50;99.90;;;;;;5093503;28;20199;-48
2022/01/31 01:54:29;;;;;;;16.05;4.13;;;5.50;99.90;;;;;;5093578;28;20659;-47
2022/01/31 01:56:55;;;;;;;7.93;2.45;;;5.50;99.90;;;;;;5093956;28;20165;-47
2022/01/31 01:59:22;;;;;;;8.93;2.60;;;5.60;99.90;;;;;;5093313;28;20180;-47
2022/01/31 02:01:47;;;;;;;4.00;1.20;;;5.60;99.90;;;;;;5093352;28;20183;-47
2022/01/31 02:04:13;;;;;;;6.00;2.03;;;5.60;99.90;;;;;;5093335;28;20676;-47
2022/01/31 02:06:40;;;;;;;10.85;2.97;;;5.60;99.90;;;;;;5092255;28;20218;-47
2022/01/31 02:09:06;;;;;;;9.23;1.75;;;5.70;99.90;;;;;;5093103;28;20699;-47
2022/01/31 02:11:31;;;;;;;13.13;2.90;;;5.60;99.90;;;;;;5093020;28;20201;-46
2022/01/31 02:13:57;;;;;;;11.27;2.60;;;5.60;99.90;;;;;;5093546;28;20208;-47
2022/01/31 02:16:22;;;;;;;4.20;1.75;;;5.60;99.90;;;;;;5075687;28;20190;-47
2022/01/31 02:18:50;;;;;;;4.72;2.22;;;5.50;99.90;;;;;;5092999;28;20154;-47
2022/01/31 02:21:17;;;;;;;10.73;2.47;;;5.50;99.90;;;;;;5093215;28;20173;-47
2022/01/31 02:23:43;;;;;;;7.88;2.33;;;5.60;99.90;;;;;;5093212;28;20172;-48
2022/01/31 02:26:09;;;;;;;5.97;2.13;;;5.60;99.90;;;;;;5092883;28;20197;-48
2022/01/31 02:28:40;;;;;;;8.55;2.58;;;5.60;99.90;;;;;;5074549;28;20270;-47
2022/01/31 02:31:06;;;;;;;13.00;2.78;;;5.50;99.90;;;;;;5092723;28;20165;-46
2022/01/31 02:33:32;;;;;;;3.47;1.40;;;5.50;99.90;;;;;;5092798;28;20169;-47
2022/01/31 02:36:00;;;;;;;7.70;2.45;;;5.40;99.90;;;;;;5092745;28;20244;-47
2022/01/31 02:38:26;;;;;;;3.25;1.25;;;5.40;99.90;;;;;;5093214;28;20177;-47
2022/01/31 02:40:52;;;;;;;4.90;1.50;;;5.40;99.90;;;;;;5092597;28;20169;-47
2022/01/31 02:43:22;;;;;;;7.10;2.08;;;5.30;99.90;;;;;;5092774;28;20173;-48
2022/01/31 02:45:48;;;;;;;5.13;1.98;;;5.30;99.90;;;;;;5092761;28;20252;-47
2022/01/31 02:48:16;;;;;;;5.40;2.28;;;5.20;99.90;;;;;;5092422;28;20292;-48
2022/01/31 02:50:42;;;;;;;10.57;2.97;;;5.20;99.90;;;;;;5092453;28;20161;-48
2022/01/31 02:53:13;;;;;;;3.95;1.60;;;5.20;99.90;;;;;;5092362;28;20173;-49
2022/01/31 02:55:43;;;;;;;4.90;1.70;;;5.00;99.90;;;;;;5092446;28;20179;-47
2022/01/31 02:58:09;;;;;;;6.45;2.47;;;5.00;99.90;;;;;;5092413;28;20184;-47
2022/01/31 03:00:35;;;;;;;9.93;2.25;;;5.00;99.90;;;;;;5092343;28;20516;-49
2022/01/31 03:03:01;;;;;;;4.45;2.38;;;4.90;99.90;;;;;;5092559;28;20678;-47
2022/01/31 03:05:27;;;;;;;5.85;2.50;;;4.90;99.90;;;;;;5092567;28;20173;-49
2022/01/31 03:07:52;;;;;;;7.97;2.47;;;4.90;99.90;;;;;;5092516;28;20300;-47
2022/01/31 03:10:18;;;;;;;3.35;1.33;;;4.90;99.90;;;;;;5092171;28;20245;-51
2022/01/31 03:12:44;;;;;;;4.80;2.20;;;4.80;99.90;;;;;;5092034;28;20354;-50
2022/01/31 03:15:09;;;;;;;9.27;2.15;;;4.80;99.90;;;;;;5092239;28;20201;-53
2022/01/31 03:17:35;;;;;;;5.68;2.53;;;4.80;99.90;;;;;;5091821;28;20254;-50
2022/01/31 03:20:01;;;;;;;3.42;1.67;;;4.80;99.90;;;;;;5092345;28;20165;-52
2022/01/31 03:22:27;;;;;;;2.78;1.83;;;4.70;99.90;;;;;;5092625;28;20242;-51
2022/01/31 03:24:52;;;;;;;5.20;1.85;;;4.60;99.90;;;;;;5092452;28;20204;-51
2022/01/31 03:27:18;;;;;;;15.80;2.53;;;4.60;99.90;;;;;;5091929;28;20529;-51
2022/01/31 03:29:43;;;;;;;4.18;2.13;;;4.60;99.90;;;;;;5092152;28;20227;-47
2022/01/31 03:32:09;;;;;;;3.92;1.77;;;4.60;99.90;;;;;;5092002;28;20712;-49
2022/01/31 03:34:35;;;;;;;4.40;1.80;;;4.60;99.90;;;;;;5091969;28;20169;-48
2022/01/31 03:37:00;;;;;;;4.57;2.60;;;4.60;99.90;;;;;;5091838;28;20165;-47
2022/01/31 03:39:26;;;;;;;5.32;1.88;;;4.70;99.90;;;;;;5092202;28;20244;-50
2022/01/31 03:41:51;;;;;;;5.53;2.08;;;4.70;99.90;;;;;;5092170;28;20246;-48
2022/01/31 03:44:17;;;;;;;7.82;2.28;;;4.70;99.90;;;;;;5091874;28;20689;-47
2022/01/31 03:46:43;;;;;;;2.80;1.75;;;4.70;99.90;;;;;;5091773;28;20173;-52
2022/01/31 03:49:08;;;;;;;6.07;2.13;;;4.70;99.90;;;;;;5091746;28;20250;-53
2022/01/31 03:51:34;;;;;;;6.97;2.15;;;4.80;99.90;;;;;;5091814;28;20228;-51
2022/01/31 03:53:59;;;;;;;4.20;1.88;;;4.80;99.90;;;;;;5092073;28;20534;-51
2022/01/31 03:56:25;;;;;;;3.75;2.00;;;4.80;99.90;;;;;;5092078;28;20643;-48
2022/01/31 03:58:50;;;;;;;10.60;2.35;;;4.90;99.90;;;;;;5091738;28;20169;-50
2022/01/31 04:01:16;;;;;;;3.20;1.55;;;4.90;99.90;;;;;;5091770;28;20174;-49
2022/01/31 04:03:41;;;;;;;5.65;2.40;;;4.90;99.90;;;;;;5092003;28;20559;-51
2022/01/31 04:06:07;;;;;;;2.97;1.90;;;5.00;99.90;;;;;;5091673;28;20655;-51
2022/01/31 04:08:32;;;;;;;1.83;1.67;;;5.00;99.90;;;;;;5091518;28;20215;-51
2022/01/31 04:10:58;;;;;;;5.32;2.30;;;5.10;99.90;;;;;;5091698;28;20177;-47
2022/01/31 04:13:26;;;;;;;4.97;1.73;;;5.10;99.90;;;;;;5091652;28;20747;-47
2022/01/31 04:15:51;;;;;;;3.85;1.83;;;5.10;99.90;;;;;;5091495;28;20535;-49
2022/01/31 04:18:17;;;;;;;6.05;2.10;;;5.20;99.90;;;;;;5091505;28;20169;-47
2022/01/31 04:20:42;;;;;;;4.53;1.52;;;5.20;99.90;;;;;;5091782;28;20162;-49
2022/01/31 04:23:14;;;;;;;1.83;1.33;;;5.20;99.90;;;;;;5091647;28;20168;-50
2022/01/31 04:25:51;;;;;;;3.78;1.52;;;5.20;99.90;;;;;;5091563;28;20222;-49
2022/01/31 04:28:31;;;;;;;2.20;1.92;;;5.20;99.90;;;;;;5091387;28;20557;-49
2022/01/31 04:31:12;;;;;;;4.50;1.77;;;5.20;99.90;;;;;;5094635;28;20180;-48
2022/01/31 04:33:38;;;;;;;5.20;1.85;;;5.30;99.90;;;;;;5095324;28;20207;-49
2022/01/31 04:36:05;;;;;;;3.38;1.42;;;5.30;99.90;;;;;;5094990;28;20170;-48
2022/01/31 04:38:30;;;;;;;6.13;2.30;;;5.30;99.90;;;;;;5094884;28;20538;-49
2022/01/31 04:40:56;;;;;;;4.65;2.15;;;5.30;99.90;;;;;;5095283;28;20169;-47
2022/01/31 04:43:22;;;;;;;6.90;2.70;;;5.40;99.90;;;;;;5094864;28;20260;-49
2022/01/31 04:45:48;;;;;;;6.15;2.42;;;5.50;99.90;;;;;;5095071;28;20172;-49
2022/01/31 04:48:15;;;;;;;4.43;2.17;;;5.40;99.90;;;;;;5094907;28;20209;-48
2022/01/31 04:50:41;;;;;;;7.55;2.45;;;5.50;99.90;;;;;;5094663;28;20248;-48
2022/01/31 04:53:07;;;;;;;5.65;2.53;;;5.50;99.90;;;;;;5094605;28;20633;-50
2022/01/31 04:55:33;;;;;;;7.05;2.97;;;5.50;99.90;;;;;;5094649;28;20252;-48
2022/01/31 04:57:59;;;;;;;7.90;2.22;;;5.60;99.90;;;;;;5094819;28;20283;-48
2022/01/31 05:00:25;;;;;;;5.93;2.38;;;5.50;99.90;;;;;;5094954;28;20244;-49
2022/01/31 05:02:51;;;;;;;5.28;2.55;;;5.50;99.90;;;;;;5094746;28;20173;-47
2022/01/31 05:05:16;;;;;;;7.05;3.05;;;5.60;99.90;;;;;;5094454;28;20236;-49
2022/01/31 05:07:42;;;;;;;4.50;2.42;;;5.50;99.90;;;;;;5094367;28;20593;-49
2022/01/31 05:10:08;;;;;;;6.50;3.10;;;5.60;99.90;;;;;;5094629;28;20207;-49
2022/01/31 05:12:34;;;;;;;6.40;3.15;;;5.60;99.90;;;;;;5094122;28;20266;-47
2022/01/31 05:15:00;;;;;;;6.50;2.80;;;5.70;99.90;;;;;;5094493;28;20165;-49
2022/01/31 05:17:25;;;;;;;5.22;3.30;;;5.70;99.90;;;;;;5094523;28;20189;-47
2022/01/31 05:19:51;;;;;;;10.60;3.22;;;5.70;99.90;;;;;;5094210;28;20169;-47
2022/01/31 05:22:17;;;;;;;5.32;2.30;;;5.70;99.90;;;;;;5094178;28;20173;-48
2022/01/31 05:24:42;;;;;;;9.07;2.53;;;5.70;99.90;;;;;;5094129;28;20252;-50
2022/01/31 05:27:08;;;;;;;6.18;2.83;;;5.70;99.90;;;;;;5094114;28;20178;-51
2022/01/31 05:29:33;;;;;;;6.53;3.13;;;5.70;99.90;;;;;;5094027;28;20177;-49
2022/01/31 05:31:59;;;;;;;8.25;2.67;;;5.80;99.90;;;;;;5093958;28;20164;-51
2022/01/31 05:34:24;;;;;;;5.68;2.40;;;5.80;99.90;;;;;;5094264;28;20169;-47
2022/01/31 05:36:55;;;;;;;3.33;1.52;;;5.80;99.90;;;;;;5093920;28;20162;-48
2022/01/31 05:39:25;;;;;;;9.85;3.28;;;5.80;99.90;;;;;;5094075;28;20230;-50
2022/01/31 05:41:52;;;;;;;11.77;3.13;;;5.90;99.90;;;;;;5093871;28;20248;-48
2022/01/31 05:44:19;;;;;;;6.97;3.25;;;5.80;99.90;;;;;;5093756;28;20240;-47
2022/01/31 05:46:44;;;;;;;24.63;3.28;;;5.80;99.90;;;;;;5093892;28;20181;-49
2022/01/31 05:49:10;;;;;;;10.73;3.55;;;5.80;99.90;;;;;;5093581;28;20201;-49
2022/01/31 05:51:51;;;;;;;9.88;3.10;;;5.90;99.90;;;;;;5093592;28;20176;-49
2022/01/31 05:54:17;;;;;;;13.10;3.20;;;5.80;99.90;;;;;;5093499;28;20196;-49
2022/01/31 05:56:42;;;;;;;8.65;3.35;;;5.90;99.90;;;;;;5093665;28;20196;-50
2022/01/31 05:59:08;;;;;;;17.77;3.40;;;5.80;99.90;;;;;;5093480;28;20244;-47
2022/01/31 06:01:38;;;;;;;5.85;2.20;;;5.80;99.90;;;;;;5093468;28;20678;-49
2022/01/31 06:04:07;;;;;;;7.45;2.33;;;5.90;99.90;;;;;;5093578;28;20169;-48
2022/01/31 06:06:32;;;;;;;10.40;1.92;;;5.80;99.90;;;;;;5093564;28;20181;-50
2022/01/31 06:08:58;;;;;;;9.95;2.95;;;5.90;99.90;;;;;;5093154;28;20213;-48
2022/01/31 06:11:25;;;;;;;14.00;2.83;;;5.90;99.90;;;;;;5093463;28;20173;-48
2022/01/31 06:13:51;;;;;;;6.15;2.55;;;5.90;99.90;;;;;;5093455;28;20188;-49
2022/01/31 06:16:18;;;;;;;8.07;2.30;;;5.90;99.90;;;;;;5093340;28;20173;-49
2022/01/31 06:18:44;;;;;;;8.00;1.98;;;5.90;99.90;;;;;;5092890;28;20201;-50
2022/01/31 06:21:11;;;;;;;10.73;2.72;;;5.90;99.90;;;;;;5092822;28;20266;-48
2022/01/31 06:23:37;;;;;;;5.25;1.80;;;5.90;99.90;;;;;;5092768;28;20177;-48
2022/01/31 06:26:02;;;;;;;8.02;1.38;;;5.90;99.90;;;;;;5092809;28;20169;-51
2022/01/31 06:28:28;;;;;;;12.93;2.47;;;5.90;99.90;;;;;;5092523;28;20205;-50
2022/01/31 06:30:53;;;;;;;8.85;1.95;;;5.90;99.90;;;;;;5093116;28;20165;-52
2022/01/31 06:33:19;;;;;;;13.75;2.25;;;5.90;99.90;;;;;;5092830;28;20268;-52
2022/01/31 06:35:44;;;;;;;6.30;1.40;;;5.90;99.90;;;;;;5092723;28;20165;-52
2022/01/31 06:38:10;;;;;;;17.08;2.53;;;5.90;99.90;;;;;;5092737;28;20172;-51
2022/01/31 06:40:36;;;;;;;4.30;1.85;;;5.90;99.90;;;;;;5092812;28;20169;-54
2022/01/31 06:43:02;;;;;;;7.70;2.88;;;5.80;99.90;;;;;;5092743;28;20165;-50
2022/01/31 06:45:27;;;;;;;9.68;2.30;;;5.80;99.90;;;;;;5092542;28;20162;-49
2022/01/31 06:47:53;;;;;;;4.43;1.88;;;5.80;99.90;;;;;;5092785;28;20200;-49
2022/01/31 06:50:18;;;;;;;4.15;1.95;;;5.70;99.90;;;;;;5092372;28;20260;-49
2022/01/31 06:52:44;;;;;;;8.75;2.35;;;5.80;99.90;;;;;;5091621;28;20255;-48
2022/01/31 06:55:18;;;;;;;10.30;2.40;;;5.80;99.90;;;;;;5092406;28;20177;-50
2022/01/31 06:57:44;;;;;;;12.10;1.95;;;5.80;99.90;;;;;;5092650;28;20194;-49
2022/01/31 07:00:12;;;;;;;7.15;2.08;;;5.70;99.90;;;;;;5092275;28;20173;-48
2022/01/31 07:02:38;;;;;;;6.57;2.45;;;5.70;99.90;;;;;;5092311;28;20172;-53
2022/01/31 07:05:04;;;;;;;4.35;2.30;;;5.70;99.90;;;;;;5092269;28;20177;-47
2022/01/31 07:07:30;;;;;;;33.22;2.40;;;5.70;99.90;;;;;;5092290;28;20165;-48
2022/01/31 07:09:56;;;;;;;3.28;1.80;;;5.60;99.90;;;;;;5092593;28;20550;-49
2022/01/31 07:12:31;;;;;;;6.75;1.92;;;5.60;99.90;;;;;;5092191;28;20213;-50
2022/01/31 07:14:57;;;;;;;8.73;2.85;;;5.60;99.90;;;;;;5092538;28;20255;-50
2022/01/31 07:17:22;;;;;;;6.82;1.73;;;5.50;99.90;;;;;;5092442;28;20168;-50
2022/01/31 07:19:48;;;;;;;9.88;1.95;;;5.50;99.90;;;;;;5092103;28;20625;-49
2022/01/31 07:22:15;;;;;;;6.35;1.70;;;5.40;99.90;;;;;;5092093;28;20174;-50
2022/01/31 07:25:01;;;;;;;6.90;1.90;;;5.40;99.90;;;;;;5092343;28;20173;-52
2022/01/31 07:27:27;;;;;;;9.35;1.38;;;5.40;99.90;;;;;;5092317;28;20235;-50
2022/01/31 07:29:52;;;;;;;6.25;1.95;;;5.30;99.90;;;;;;5092484;28;20173;-52
2022/01/31 07:32:19;;;;;;;3.83;1.38;;;5.20;99.90;;;;;;5091944;28;20165;-51
2022/01/31 07:34:46;;;;;;;5.20;1.45;;;5.10;99.90;;;;;;5092233;28;20221;-51
2022/01/31 07:37:12;;;;;;;2.83;1.63;;;5.10;99.90;;;;;;5073849;28;20166;-51
2022/01/31 07:39:39;;;;;;;3.72;1.52;;;5.10;99.90;;;;;;5091947;28;20168;-53
2022/01/31 07:42:05;;;;;;;4.78;1.50;;;5.10;99.90;;;;;;5092210;28;20231;-51
2022/01/31 07:44:31;;;;;;;8.27;1.70;;;5.10;99.90;;;;;;5091858;28;20684;-51
2022/01/31 07:46:56;;;;;;;8.88;1.83;;;5.10;99.90;;;;;;5092072;28;20169;-52
2022/01/31 07:49:22;;;;;;;10.20;2.70;;;5.10;99.90;;;;;;5092051;28;20196;-50
2022/01/31 07:51:48;;;;;;;4.20;1.77;;;5.10;99.90;;;;;;5092026;28;20253;-51
2022/01/31 07:54:14;;;;;;;7.13;2.20;;;5.10;99.90;;;;;;5091764;28;20623;-49
2022/01/31 07:56:39;;;;;;;9.50;2.30;;;5.10;99.90;;;;;;5092004;28;20169;-52
2022/01/31 07:59:05;;;;;;;8.60;2.47;;;5.20;99.90;;;;;;5091789;28;20227;-49
2022/01/31 08:01:31;;;;;;;13.07;1.77;;;5.20;99.90;;;;;;5092062;28;20168;-49
2022/01/31 08:03:56;;;;;;;7.43;2.45;;;5.20;99.90;;;;;;5093158;28;20169;-48
2022/01/31 08:06:22;;;;;;;9.65;1.98;;;5.20;99.90;;;;;;5096105;28;20529;-47
2022/01/31 08:08:48;;;;;;;4.30;1.70;;;5.30;99.90;;;;;;5095548;28;20266;-49
2022/01/31 08:11:14;;;;;;;8.98;2.10;;;5.30;99.90;;;;;;5095425;28;20223;-50
2022/01/31 08:13:40;;;;;;;6.22;1.73;;;5.30;99.90;;;;;;5095723;28;20215;-49
2022/01/31 08:18:39;;;;;;;11.60;3.15;;;5.30;99.90;;;;;;5095446;28;20532;-47
2022/01/31 08:21:06;;;;;;;8.48;1.73;;;5.40;99.90;;;;;;5095423;28;20256;-47
2022/01/31 08:23:32;;;;;;;9.52;1.98;;;5.40;99.90;;;;;;5097540;28;20203;-49
2022/01/31 08:26:01;;;;;;;5.80;1.58;;;5.40;99.90;;;;;;5114962;28;20537;-47
2022/01/31 08:28:45;;;;;;;4.65;2.30;;;5.40;99.90;;;;;;5117824;27;20235;-48
2022/01/31 08:31:16;;;;;;;3.25;1.90;;;5.40;99.90;;;;;;5134929;27;20156;-47
2022/01/31 08:33:48;;;;;;;6.35;2.03;;;5.40;99.90;;;;;;5134869;27;20164;-48
2022/01/31 08:36:14;;;;;;;8.48;1.77;;;5.40;99.90;;;;;;5135079;27;20172;-48
2022/01/31 08:38:41;;;;;;;5.25;1.80;;;5.40;99.90;;;;;;5134718;27;20160;-48
2022/01/31 08:41:08;;;;;;;5.55;1.95;;;5.40;99.90;;;;;;5134687;27;20176;-44
2022/01/31 08:43:36;;;;;;;9.20;2.80;;;5.30;99.90;;;;;;5134609;27;20176;-46
2022/01/31 08:46:01;;;;;;;15.02;2.33;;;5.30;99.90;;;;;;5134533;27;20164;-44
2022/01/31 08:48:28;;;;;;;8.77;2.13;;;5.30;99.90;;;;;;5134715;27;20215;-46
2022/01/31 08:50:54;;;;;;;5.72;1.90;;;5.20;99.90;;;;;;5134827;27;20163;-47
2022/01/31 08:53:21;;;;;;;3.97;1.63;;;5.20;99.90;;;;;;5134320;27;20166;-46
2022/01/31 08:55:59;;;;;;;5.18;2.00;;;5.20;99.90;;;;;;5134488;27;20171;-46
2022/01/31 08:58:26;;;;;;;14.63;3.15;;;5.20;99.90;;;;;;5134637;27;20662;-47
2022/01/31 09:00:59;;;;;;;6.10;2.40;;;5.10;99.90;;;;;;5134362;27;20247;-47
2022/01/31 09:06:01;;;;;;;5.00;1.42;;;5.00;99.90;;;;;;5134498;27;20171;-47
2022/01/31 09:08:27;;;;;;;8.75;2.03;;;5.00;99.90;;;;;;5134257;27;20215;-43
2022/01/31 09:10:52;;;;;;;8.30;2.10;;;5.00;99.90;;;;;;5134455;27;20646;-48
2022/01/31 09:13:18;;;;;;;10.85;2.28;;;5.00;99.90;;;;;;5133800;27;20231;-46
2022/01/31 09:15:44;;;;;;;2.60;1.40;;;5.00;99.90;;;;;;5133427;27;20224;-45
2022/01/31 09:18:09;;;;;;;6.05;1.70;;;5.00;99.90;;;;;;5133925;27;20171;-46
2022/01/31 09:20:36;;;;;;;6.47;1.95;;;5.00;99.90;;;;;;5133777;27;20172;-45
2022/01/31 09:23:02;;;;;;;6.70;1.90;;;5.00;99.90;;;;;;5133941;27;20195;-47
2022/01/31 09:25:29;;;;;;;3.72;1.35;;;5.00;99.90;;;;;;5133989;27;20175;-45
2022/01/31 09:27:54;;;;;;;6.15;2.28;;;5.00;99.90;;;;;;5133982;27;20183;-45
2022/01/31 09:30:22;;;;;;;11.20;1.92;;;5.00;99.90;;;;;;5133732;27;20168;-47
2022/01/31 09:32:47;;;;;;;8.05;2.00;;;4.90;99.90;;;;;;5133928;27;20168;-47
2022/01/31 09:35:13;;;;;;;5.00;1.83;;;5.00;99.90;;;;;;5133646;27;20483;-46
2022/01/31 09:37:39;;;;;;;11.30;3.08;;;5.00;99.90;;;;;;5133724;27;20190;-46
2022/01/31 09:40:05;;;;;;;11.43;2.03;;;5.00;99.90;;;;;;5133624;27;20178;-46
2022/01/31 09:42:40;;;;;;;6.13;1.95;;;5.00;99.90;;;;;;5133576;27;20160;-47
2022/01/31 09:45:16;;;;;;;8.20;2.47;;;5.00;99.90;;;;;;5133250;27;20197;-46
2022/01/31 09:50:23;;;;;;;12.13;2.08;;;5.00;99.90;;;;;;5133298;27;20160;-47
2022/01/31 09:52:49;;;;;;;10.73;2.58;;;5.00;99.90;;;;;;5133319;27;20160;-47
2022/01/31 09:55:14;;;;;;;9.75;2.72;;;5.00;99.90;;;;;;5132912;27;20172;-46
2022/01/31 09:57:40;;;;;;;12.18;2.08;;;4.90;99.90;;;;;;5133419;27;20195;-45
2022/01/31 10:00:07;;;;;;;2.40;1.55;;;5.00;99.90;;;;;;5132965;27;20194;-45
2022/01/31 10:02:33;;;;;;;12.93;2.67;;;5.00;99.90;;;;;;5132969;27;20219;-45
2022/01/31 10:04:58;;;;;;;9.05;2.42;;;5.00;99.90;;;;;;5132875;27;20204;-46
2022/01/31 10:07:42;;;;;;;9.32;2.65;;;5.10;99.90;;;;;;5133059;27;20641;-47
2022/01/31 10:10:23;;;;;;;8.23;2.17;;;5.10;99.90;;;;;;5132978;27;20619;-45
2022/01/31 10:18:06;;;;;;;14.40;2.90;;;5.00;99.90;;;;;;5132969;27;20272;-46
2022/01/31 10:20:33;;;;;;;7.45;2.03;;;5.00;99.90;;;;;;5114478;27;20569;-45
2022/01/31 10:23:14;;;;;;;7.13;2.75;;;4.90;99.90;;;;;;5112120;28;20160;-45
2022/01/31 10:25:40;;;;;;;3.30;2.25;;;5.00;99.90;;;;;;5111910;28;20164;-45
2022/01/31 10:28:17;;;;;;;15.90;3.10;;;5.00;99.90;;;;;;5111099;28;20200;-45
2022/01/31 10:30:45;;;;;;;10.65;2.35;;;5.00;99.90;;;;;;5112134;28;20176;-45
2022/01/31 10:33:13;;;;;;;5.90;1.60;;;4.90;99.90;;;;;;5111772;28;20632;-45
2022/01/31 10:35:40;;;;;;;9.63;1.77;;;5.00;99.90;;;;;;5111715;28;20581;-45
2022/01/31 10:38:13;;;;;;;9.45;2.10;;;5.10;99.90;;;;;;5111858;28;20211;-46
2022/01/31 10:44:08;;;;;;;14.00;3.33;;;5.10;99.90;;;;;;5112273;28;20237;-45
2022/01/31 10:52:04;;;;;;;4.90;2.05;;;5.10;99.90;;;;;;5111647;28;20234;-45
2022/01/31 10:57:05;;;;;;;11.05;2.53;;;5.10;99.90;;;;;;5111756;28;20169;-45
2022/01/31 10:59:33;;;;;;;8.23;2.00;;;5.10;99.90;;;;;;5111864;28;20481;-45
2022/01/31 11:02:00;;;;;;;7.38;2.13;;;5.10;99.90;;;;;;5111617;28;20172;-45
2022/01/31 11:04:38;;;;;;;6.40;1.90;;;5.10;99.90;;;;;;5111796;28;20161;-47
2022/01/31 11:07:10;;;;;;;14.20;3.17;;;5.10;99.90;;;;;;5111767;28;20172;-45
2022/01/31 11:09:36;;;;;;;11.38;2.28;;;5.10;99.90;;;;;;5111635;28;20505;-46
2022/01/31 11:12:03;;;;;;;13.88;3.35;;;5.10;99.90;;;;;;5111477;28;20205;-45
2022/01/31 11:14:28;;;;;;;11.02;2.60;;;5.10;99.90;;;;;;5111381;28;20172;-46
2022/01/31 11:16:55;;;;;;;5.93;1.60;;;5.10;99.90;;;;;;5111552;28;20538;-45
2022/01/31 11:19:29;;;;;;;10.07;2.28;;;5.10;99.90;;;;;;5111619;28;20180;-45
2022/01/31 11:22:04;;;;;;;6.38;2.22;;;5.10;99.90;;;;;;5111737;28;20255;-48
2022/01/31 11:24:36;;;;;;;10.02;2.58;;;5.10;99.90;;;;;;5111155;28;20174;-46
2022/01/31 11:27:08;;;;;;;11.65;3.28;;;5.10;99.90;;;;;;5110166;28;20218;-45
2022/01/31 11:29:39;;;;;;;10.50;2.63;;;5.10;99.90;;;;;;5111178;28;20208;-45
2022/01/31 11:32:05;;;;;;;11.60;3.20;;;5.10;99.90;;;;;;5111102;28;20243;-45
2022/01/31 11:34:31;;;;;;;12.15;2.53;;;5.10;99.90;;;;;;5111297;28;20239;-45
2022/01/31 11:36:58;;;;;;;12.43;2.88;;;5.10;99.90;;;;;;5111582;28;20516;-45
2022/01/31 11:39:24;;;;;;;10.88;4.47;;;5.10;99.90;;;;;;5113510;28;20175;-46
2022/01/31 11:42:01;;;;;;;6.45;2.63;;;5.10;99.90;;;;;;5115597;28;20217;-45
2022/01/31 11:44:29;;;;;;;16.33;3.22;;;5.20;99.90;;;;;;5115474;28;20209;-44
2022/01/31 11:46:57;;;;;;;11.48;2.53;;;5.10;99.90;;;;;;5115653;28;20172;-45
2022/01/31 11:49:22;;;;;;;8.98;2.42;;;5.10;99.90;;;;;;5115343;28;20211;-45
2022/01/31 11:51:50;;;;;;;9.13;2.33;;;5.20;99.90;;;;;;5114902;28;20237;-46
2022/01/31 11:54:22;;;;;;;14.07;2.95;;;5.10;99.90;;;;;;5115224;28;20165;-45
2022/01/31 11:56:52;;;;;;;11.00;2.72;;;5.10;99.90;;;;;;5114926;28;20161;-45
2022/01/31 11:59:21;;;;;;;15.32;4.13;;;5.20;99.90;;;;;;5114871;28;20636;-48
2022/01/31 12:01:50;;;;;;;13.88;4.03;;;5.20;99.90;;;;;;5114967;28;20504;-49
2022/01/31 12:04:16;;;;;;;13.63;3.42;;;5.20;99.90;;;;;;5114734;28;20171;-47
2022/01/31 12:06:42;;;;;;;12.35;3.25;;;5.20;99.90;;;;;;5114851;28;20168;-50
2022/01/31 12:09:13;;;;;;;10.95;3.22;;;5.20;99.90;;;;;;5114669;28;20222;-47
2022/01/31 12:12:04;;;;;;;24.27;4.10;;;5.20;99.90;;;;;;5114591;28;20281;-46
2022/01/31 12:14:43;;;;;;;14.43;3.42;;;5.30;99.90;;;;;;5114572;28;20168;-44
2022/01/31 12:18:17;;;;;;;15.10;4.20;;;5.20;99.90;;;;;;5114587;28;20495;-45
2022/01/31 12:23:48;;;;;;;12.52;3.13;;;5.10;99.90;;;;;;5114862;28;20233;-45
2022/01/31 12:26:34;;;;;;;13.13;2.90;;;5.20;99.90;;;;;;5114672;28;20613;-45
2022/01/31 12:29:08;;;;;;;10.93;2.80;;;5.10;99.90;;;;;;5114140;28;20218;-46
2022/01/31 12:31:34;;;;;;;12.50;2.75;;;5.10;99.90;;;;;;5096079;28;20195;-48
2022/01/31 12:34:00;;;;;;;14.15;2.75;;;5.10;99.90;;;;;;5114384;28;20192;-47
2022/01/31 12:36:35;;;;;;;11.77;3.10;;;5.20;99.90;;;;;;5114622;28;20169;-44
2022/01/31 12:39:24;;;;;;;12.43;3.33;;;5.10;99.90;;;;;;5114183;28;20730;-45
2022/01/31 12:41:59;;;;;;;12.52;3.03;;;5.10;99.90;;;;;;5114130;28;20169;-45
2022/01/31 12:44:36;;;;;;;12.30;3.33;;;5.10;99.90;;;;;;5114482;28;20171;-46
2022/01/31 12:47:17;;;;;;;14.00;3.97;;;5.10;99.90;;;;;;5113996;28;20530;-45
2022/01/31 12:49:43;;;;;;;11.65;2.58;;;5.00;99.90;;;;;;5113887;28;20215;-45
2022/01/31 12:52:10;;;;;;;19.45;4.10;;;5.10;99.90;;;;;;5094744;28;20160;-46
2022/01/31 12:54:37;;;;;;;19.17;4.05;;;5.00;99.90;;;;;;5113517;28;20169;-47
2022/01/31 12:57:13;;;;;;;12.05;3.65;;;5.00;99.90;;;;;;5114180;28;20164;-47
2022/01/31 12:59:40;;;;;;;9.23;2.70;;;5.10;99.90;;;;;;5112966;28;20169;-51
2022/01/31 13:02:10;;;;;;;6.20;2.67;;;5.10;99.90;;;;;;5113696;28;20624;-50
2022/01/31 13:04:37;;;;;;;14.20;2.60;;;5.10;99.90;;;;;;5114144;28;20180;-51
2022/01/31 13:07:08;;;;;;;16.23;4.55;;;5.10;99.90;;;;;;5113631;28;20578;-52
2022/01/31 13:09:38;;;;;;;19.30;3.40;;;5.10;99.90;;;;;;5113606;28;20215;-52
2022/01/31 13:12:06;;;;;;;9.95;2.35;;;5.20;99.90;;;;;;5113137;28;20212;-53
2022/01/31 13:14:33;;;;;;;11.05;2.50;;;5.20;99.90;;;;;;5113185;28;20172;-53
2022/01/31 13:17:08;;;;;;;18.50;2.90;;;5.20;99.90;;;;;;5113168;28;20161;-44
2022/01/31 13:19:36;;;;;;;11.07;2.45;;;5.20;99.90;;;;;;5113244;28;20213;-45
2022/01/31 13:22:06;;;;;;;18.67;3.28;;;5.20;99.90;;;;;;5113243;28;20255;-45
2022/01/31 13:24:39;;;;;;;10.75;2.92;;;5.20;99.90;;;;;;5113418;28;20172;-45